sensor_id;sensor_type;location;lat;lon;timestamp;temperature;humidity
52709;DHT22;38606;52.986;6.980;2022-12-11T00:01:19;0.10;99.90
52709;DHT22;38606;52.986;6.980;2022-12-11T00:03:46;-0.40;99.90
52709;DHT22;38606;52.986;6.980;2022-12-11T00:06:14;-0.20;99.90
52709;DHT22;38606;52.986;6.980;2022-12-11T00:08:40;-0.40;99.90
52709;DHT22;38606;52.986;6.980;2022-12-11T00:11:12;-0.20;99.90
52709;DHT22;38606;52.986;6.980;2022-12-11T00:13:38;-0.30;99.90
52709;DHT22;38606;52.986;6.980;2022-12-11T00:16:04;-0.20;99.90
52709;DHT22;38606;52.986;6.980;2022-12-11T00:18:30;-0.10;99.90
52709;DHT22;38606;52.986;6.980;2022-12-11T00:21:10;0.80;99.90
52709;DHT22;38606;52.986;6.980;2022-12-11T00:23:36;-0.30;99.90
52709;DHT22;38606;52.986;6.980;2022-12-11T00:26:07;-0.10;99.90
52709;DHT22;38606;52.986;6.980;2022-12-11T00:28:34;-0.20;99.90
52709;DHT22;38606;52.986;6.980;2022-12-11T00:31:05;0.00;99.90
52709;DHT22;38606;52.986;6.980;2022-12-11T00:33:33;-0.10;99.90
52709;DHT22;38606;52.986;6.980;2022-12-11T00:35:59;-0.20;99.90
52709;DHT22;38606;52.986;6.980;2022-12-11T00:38:25;-0.30;99.90
52709;DHT22;38606;52.986;6.980;2022-12-11T00:40:50;-0.20;99.90
52709;DHT22;38606;52.986;6.980;2022-12-11T00:43:16;-0.20;99.90
52709;DHT22;38606;52.986;6.980;2022-12-11T00:45:44;-0.10;99.90
52709;DHT22;38606;52.986;6.980;2022-12-11T00:48:11;0.00;99.90
52709;DHT22;38606;52.986;6.980;2022-12-11T00:50:38;0.30;99.90
52709;DHT22;38606;52.986;6.980;2022-12-11T00:53:05;0.10;99.90
52709;DHT22;38606;52.986;6.980;2022-12-11T00:55:35;-0.10;99.90
52709;DHT22;38606;52.986;6.980;2022-12-11T00:58:01;0.10;99.90
52709;DHT22;38606;52.986;6.980;2022-12-11T01:00:27;0.20;99.90
52709;DHT22;38606;52.986;6.980;2022-12-11T01:02:52;0.00;99.90
52709;DHT22;38606;52.986;6.980;2022-12-11T01:05:18;0.00;99.90
52709;DHT22;38606;52.986;6.980;2022-12-11T01:07:44;0.10;99.90
52709;DHT22;38606;52.986;6.980;2022-12-11T01:10:11;1.40;99.90
52709;DHT22;38606;52.986;6.980;2022-12-11T01:15:15;0.20;99.90
52709;DHT22;38606;52.986;6.980;2022-12-11T01:17:41;0.10;99.90
52709;DHT22;38606;52.986;6.980;2022-12-11T01:20:07;0.20;99.90
52709;DHT22;38606;52.986;6.980;2022-12-11T01:22:33;0.10;99.90
52709;DHT22;38606;52.986;6.980;2022-12-11T01:24:58;0.10;99.90
52709;DHT22;38606;52.986;6.980;2022-12-11T01:27:24;0.20;99.90
52709;DHT22;38606;52.986;6.980;2022-12-11T01:29:50;0.10;99.90
52709;DHT22;38606;52.986;6.980;2022-12-11T01:32:16;1.30;99.90
52709;DHT22;38606;52.986;6.980;2022-12-11T01:34:42;0.20;99.90
52709;DHT22;38606;52.986;6.980;2022-12-11T01:37:07;0.20;99.90
52709;DHT22;38606;52.986;6.980;2022-12-11T01:39:33;0.30;99.90
52709;DHT22;38606;52.986;6.980;2022-12-11T01:42:00;0.20;99.90
52709;DHT22;38606;52.986;6.980;2022-12-11T01:46:52;0.20;99.90
52709;DHT22;38606;52.986;6.980;2022-12-11T01:49:22;0.40;99.90
52709;DHT22;38606;52.986;6.980;2022-12-11T01:54:21;0.30;99.90
52709;DHT22;38606;52.986;6.980;2022-12-11T01:56:50;0.40;99.90
52709;DHT22;38606;52.986;6.980;2022-12-11T01:59:19;0.40;99.90
52709;DHT22;38606;52.986;6.980;2022-12-11T02:01:53;0.00;99.90
52709;DHT22;38606;52.986;6.980;2022-12-11T02:04:20;0.50;99.90
52709;DHT22;38606;52.986;6.980;2022-12-11T02:06:47;0.30;99.90
52709;DHT22;38606;52.986;6.980;2022-12-11T02:09:16;1.30;99.90
52709;DHT22;38606;52.986;6.980;2022-12-11T02:17:28;0.30;99.90
52709;DHT22;38606;52.986;6.980;2022-12-11T02:30:54;0.30;99.90
52709;DHT22;38606;52.986;6.980;2022-12-11T02:33:26;0.30;99.90
52709;DHT22;38606;52.986;6.980;2022-12-11T02:35:54;0.60;99.90
52709;DHT22;38606;52.986;6.980;2022-12-11T02:38:25;0.60;99.90
52709;DHT22;38606;52.986;6.980;2022-12-11T02:40:54;1.60;99.90
52709;DHT22;38606;52.986;6.980;2022-12-11T02:43:21;0.50;99.90
52709;DHT22;38606;52.986;6.980;2022-12-11T02:45:49;0.30;99.90
52709;DHT22;38606;52.986;6.980;2022-12-11T02:48:16;0.70;99.90
52709;DHT22;38606;52.986;6.980;2022-12-11T02:50:45;0.50;99.90
52709;DHT22;38606;52.986;6.980;2022-12-11T02:53:13;0.40;99.90
52709;DHT22;38606;52.986;6.980;2022-12-11T02:55:41;0.50;99.90
52709;DHT22;38606;52.986;6.980;2022-12-11T02:58:15;0.60;99.90
52709;DHT22;38606;52.986;6.980;2022-12-11T03:00:45;0.40;99.90
52709;DHT22;38606;52.986;6.980;2022-12-11T03:03:12;0.60;99.90
52709;DHT22;38606;52.986;6.980;2022-12-11T03:05:38;0.50;99.90
52709;DHT22;38606;52.986;6.980;2022-12-11T03:08:05;0.70;99.90
52709;DHT22;38606;52.986;6.980;2022-12-11T03:10:31;0.50;99.90
52709;DHT22;38606;52.986;6.980;2022-12-11T03:12:58;0.60;99.90
52709;DHT22;38606;52.986;6.980;2022-12-11T03:16:20;0.50;99.90
52709;DHT22;38606;52.986;6.980;2022-12-11T03:18:26;0.70;99.90
52709;DHT22;38606;52.986;6.980;2022-12-11T03:21:13;0.80;99.90
52709;DHT22;38606;52.986;6.980;2022-12-11T03:26:39;1.70;99.90
52709;DHT22;38606;52.986;6.980;2022-12-11T03:29:16;0.70;99.90
52709;DHT22;38606;52.986;6.980;2022-12-11T03:34:44;0.60;99.90
52709;DHT22;38606;52.986;6.980;2022-12-11T03:37:13;0.70;99.90
52709;DHT22;38606;52.986;6.980;2022-12-11T03:39:43;0.70;99.90
52709;DHT22;38606;52.986;6.980;2022-12-11T03:42:13;0.70;99.90
52709;DHT22;38606;52.986;6.980;2022-12-11T03:44:45;0.80;99.90
52709;DHT22;38606;52.986;6.980;2022-12-11T03:47:14;0.60;99.90
52709;DHT22;38606;52.986;6.980;2022-12-11T03:49:43;0.70;99.90
52709;DHT22;38606;52.986;6.980;2022-12-11T03:52:11;0.90;99.90
52709;DHT22;38606;52.986;6.980;2022-12-11T03:54:40;0.80;99.90
52709;DHT22;38606;52.986;6.980;2022-12-11T03:57:07;0.80;99.90
52709;DHT22;38606;52.986;6.980;2022-12-11T03:59:34;1.80;99.90
52709;DHT22;38606;52.986;6.980;2022-12-11T04:02:00;0.70;99.90
52709;DHT22;38606;52.986;6.980;2022-12-11T04:04:25;0.60;99.90
52709;DHT22;38606;52.986;6.980;2022-12-11T04:06:51;0.60;99.90
52709;DHT22;38606;52.986;6.980;2022-12-11T04:09:17;0.80;99.90
52709;DHT22;38606;52.986;6.980;2022-12-11T04:11:42;0.70;99.90
52709;DHT22;38606;52.986;6.980;2022-12-11T04:14:10;0.80;99.90
52709;DHT22;38606;52.986;6.980;2022-12-11T04:16:55;2.00;99.90
52709;DHT22;38606;52.986;6.980;2022-12-11T04:19:22;1.00;99.90
52709;DHT22;38606;52.986;6.980;2022-12-11T04:22:11;1.40;99.90
52709;DHT22;38606;52.986;6.980;2022-12-11T04:24:56;0.70;99.90
52709;DHT22;38606;52.986;6.980;2022-12-11T04:27:22;1.60;99.90
52709;DHT22;38606;52.986;6.980;2022-12-11T04:30:11;0.80;99.90
52709;DHT22;38606;52.986;6.980;2022-12-11T04:32:37;0.90;99.90
52709;DHT22;38606;52.986;6.980;2022-12-11T04:35:04;0.80;99.90
52709;DHT22;38606;52.986;6.980;2022-12-11T04:37:30;0.60;99.90
52709;DHT22;38606;52.986;6.980;2022-12-11T04:39:56;2.40;99.90
52709;DHT22;38606;52.986;6.980;2022-12-11T04:42:22;0.80;99.90
52709;DHT22;38606;52.986;6.980;2022-12-11T04:44:47;0.90;99.90
52709;DHT22;38606;52.986;6.980;2022-12-11T04:47:13;0.90;99.90
52709;DHT22;38606;52.986;6.980;2022-12-11T04:49:39;2.00;99.90
52709;DHT22;38606;52.986;6.980;2022-12-11T04:52:04;1.00;99.90
52709;DHT22;38606;52.986;6.980;2022-12-11T04:54:31;0.70;99.90
52709;DHT22;38606;52.986;6.980;2022-12-11T04:56:57;0.80;99.90
52709;DHT22;38606;52.986;6.980;2022-12-11T04:59:22;0.90;99.90
52709;DHT22;38606;52.986;6.980;2022-12-11T05:01:48;1.10;99.90
52709;DHT22;38606;52.986;6.980;2022-12-11T05:04:14;1.10;99.90
52709;DHT22;38606;52.986;6.980;2022-12-11T05:06:39;0.80;99.90
52709;DHT22;38606;52.986;6.980;2022-12-11T05:09:05;0.90;99.90
52709;DHT22;38606;52.986;6.980;2022-12-11T05:11:31;1.40;99.90
52709;DHT22;38606;52.986;6.980;2022-12-11T05:13:57;1.00;99.90
52709;DHT22;38606;52.986;6.980;2022-12-11T05:16:23;1.00;99.90
52709;DHT22;38606;52.986;6.980;2022-12-11T05:18:49;1.40;99.90
52709;DHT22;38606;52.986;6.980;2022-12-11T05:21:14;0.90;99.90
52709;DHT22;38606;52.986;6.980;2022-12-11T05:23:41;1.00;99.90
52709;DHT22;38606;52.986;6.980;2022-12-11T05:26:10;0.80;99.90
52709;DHT22;38606;52.986;6.980;2022-12-11T05:28:37;0.80;99.90
52709;DHT22;38606;52.986;6.980;2022-12-11T05:31:10;0.80;99.90
52709;DHT22;38606;52.986;6.980;2022-12-11T05:33:36;-0.40;99.90
52709;DHT22;38606;52.986;6.980;2022-12-11T05:36:02;1.00;99.90
52709;DHT22;38606;52.986;6.980;2022-12-11T05:38:28;0.90;99.90
52709;DHT22;38606;52.986;6.980;2022-12-11T05:40:58;0.80;99.90
52709;DHT22;38606;52.986;6.980;2022-12-11T05:43:28;0.90;99.90
52709;DHT22;38606;52.986;6.980;2022-12-11T05:45:59;0.80;99.90
52709;DHT22;38606;52.986;6.980;2022-12-11T05:48:28;0.80;99.90
52709;DHT22;38606;52.986;6.980;2022-12-11T05:50:58;1.80;99.90
52709;DHT22;38606;52.986;6.980;2022-12-11T05:53:25;0.80;99.90
52709;DHT22;38606;52.986;6.980;2022-12-11T05:55:51;1.00;99.90
52709;DHT22;38606;52.986;6.980;2022-12-11T05:58:17;0.80;99.90
52709;DHT22;38606;52.986;6.980;2022-12-11T06:00:43;0.90;99.90
52709;DHT22;38606;52.986;6.980;2022-12-11T06:03:09;0.90;99.90
52709;DHT22;38606;52.986;6.980;2022-12-11T06:05:38;0.90;99.90
52709;DHT22;38606;52.986;6.980;2022-12-11T06:08:04;0.70;99.90
52709;DHT22;38606;52.986;6.980;2022-12-11T06:10:30;2.10;99.90
52709;DHT22;38606;52.986;6.980;2022-12-11T06:12:56;0.90;99.90
52709;DHT22;38606;52.986;6.980;2022-12-11T06:15:22;0.90;99.90
52709;DHT22;38606;52.986;6.980;2022-12-11T06:17:47;0.90;99.90
52709;DHT22;38606;52.986;6.980;2022-12-11T06:20:13;0.80;99.90
52709;DHT22;38606;52.986;6.980;2022-12-11T06:22:39;0.80;99.90
52709;DHT22;38606;52.986;6.980;2022-12-11T06:25:05;0.90;99.90
52709;DHT22;38606;52.986;6.980;2022-12-11T06:27:31;0.90;99.90
52709;DHT22;38606;52.986;6.980;2022-12-11T06:29:56;0.80;99.90
52709;DHT22;38606;52.986;6.980;2022-12-11T06:32:22;0.80;99.90
52709;DHT22;38606;52.986;6.980;2022-12-11T06:34:47;1.00;99.90
52709;DHT22;38606;52.986;6.980;2022-12-11T06:37:13;1.20;99.90
52709;DHT22;38606;52.986;6.980;2022-12-11T06:39:39;1.00;99.90
52709;DHT22;38606;52.986;6.980;2022-12-11T06:42:04;1.00;99.90
52709;DHT22;38606;52.986;6.980;2022-12-11T06:44:30;0.80;99.90
52709;DHT22;38606;52.986;6.980;2022-12-11T06:46:56;0.70;99.90
52709;DHT22;38606;52.986;6.980;2022-12-11T06:49:22;0.70;99.90
52709;DHT22;38606;52.986;6.980;2022-12-11T06:51:47;0.80;99.90
52709;DHT22;38606;52.986;6.980;2022-12-11T06:54:13;1.70;99.90
52709;DHT22;38606;52.986;6.980;2022-12-11T06:56:39;0.90;99.90
52709;DHT22;38606;52.986;6.980;2022-12-11T06:59:05;0.90;99.90
52709;DHT22;38606;52.986;6.980;2022-12-11T07:01:31;0.90;99.90
52709;DHT22;38606;52.986;6.980;2022-12-11T07:03:58;0.90;99.90
52709;DHT22;38606;52.986;6.980;2022-12-11T07:06:26;0.90;99.90
52709;DHT22;38606;52.986;6.980;2022-12-11T07:08:52;0.90;99.90
52709;DHT22;38606;52.986;6.980;2022-12-11T07:11:19;1.00;99.90
52709;DHT22;38606;52.986;6.980;2022-12-11T07:13:45;1.00;99.90
52709;DHT22;38606;52.986;6.980;2022-12-11T07:16:12;1.00;99.90
52709;DHT22;38606;52.986;6.980;2022-12-11T07:18:40;1.10;99.90
52709;DHT22;38606;52.986;6.980;2022-12-11T07:21:07;0.90;99.90
52709;DHT22;38606;52.986;6.980;2022-12-11T07:23:34;1.10;99.90
52709;DHT22;38606;52.986;6.980;2022-12-11T07:26:08;0.70;99.90
52709;DHT22;38606;52.986;6.980;2022-12-11T07:28:34;2.00;99.90
52709;DHT22;38606;52.986;6.980;2022-12-11T07:31:11;0.90;99.90
52709;DHT22;38606;52.986;6.980;2022-12-11T07:33:37;0.90;99.90
52709;DHT22;38606;52.986;6.980;2022-12-11T07:36:05;1.20;99.90
52709;DHT22;38606;52.986;6.980;2022-12-11T07:38:32;1.00;99.90
52709;DHT22;38606;52.986;6.980;2022-12-11T07:41:02;1.90;99.90
52709;DHT22;38606;52.986;6.980;2022-12-11T07:43:28;0.90;99.90
52709;DHT22;38606;52.986;6.980;2022-12-11T07:45:54;1.10;99.90
52709;DHT22;38606;52.986;6.980;2022-12-11T07:48:19;0.80;99.90
52709;DHT22;38606;52.986;6.980;2022-12-11T07:50:45;1.40;99.90
52709;DHT22;38606;52.986;6.980;2022-12-11T07:53:10;1.50;99.90
52709;DHT22;38606;52.986;6.980;2022-12-11T07:55:36;0.90;99.90
52709;DHT22;38606;52.986;6.980;2022-12-11T07:58:02;2.00;99.90
52709;DHT22;38606;52.986;6.980;2022-12-11T08:00:28;1.00;99.90
52709;DHT22;38606;52.986;6.980;2022-12-11T08:02:54;1.50;99.90
52709;DHT22;38606;52.986;6.980;2022-12-11T08:05:19;2.00;99.90
52709;DHT22;38606;52.986;6.980;2022-12-11T08:07:45;1.00;99.90
52709;DHT22;38606;52.986;6.980;2022-12-11T08:10:11;2.00;99.90
52709;DHT22;38606;52.986;6.980;2022-12-11T08:12:37;1.00;99.90
52709;DHT22;38606;52.986;6.980;2022-12-11T08:15:03;1.10;99.90
52709;DHT22;38606;52.986;6.980;2022-12-11T08:17:29;0.80;99.90
52709;DHT22;38606;52.986;6.980;2022-12-11T08:19:54;0.90;99.90
52709;DHT22;38606;52.986;6.980;2022-12-11T08:22:20;1.10;99.90
52709;DHT22;38606;52.986;6.980;2022-12-11T08:24:49;1.10;99.90
52709;DHT22;38606;52.986;6.980;2022-12-11T08:27:14;1.20;99.90
52709;DHT22;38606;52.986;6.980;2022-12-11T08:29:40;1.00;99.90
52709;DHT22;38606;52.986;6.980;2022-12-11T08:32:06;1.00;99.90
52709;DHT22;38606;52.986;6.980;2022-12-11T08:34:32;1.00;99.90
52709;DHT22;38606;52.986;6.980;2022-12-11T08:36:57;1.20;99.90
52709;DHT22;38606;52.986;6.980;2022-12-11T08:39:23;1.10;99.90
52709;DHT22;38606;52.986;6.980;2022-12-11T08:41:49;0.90;99.90
52709;DHT22;38606;52.986;6.980;2022-12-11T08:44:15;1.00;99.90
52709;DHT22;38606;52.986;6.980;2022-12-11T08:46:41;1.80;99.90
52709;DHT22;38606;52.986;6.980;2022-12-11T08:49:06;0.90;99.90
52709;DHT22;38606;52.986;6.980;2022-12-11T08:51:32;1.10;99.90
52709;DHT22;38606;52.986;6.980;2022-12-11T08:53:59;1.10;99.90
52709;DHT22;38606;52.986;6.980;2022-12-11T08:56:26;1.80;99.90
52709;DHT22;38606;52.986;6.980;2022-12-11T08:58:52;2.00;99.90
52709;DHT22;38606;52.986;6.980;2022-12-11T09:01:21;1.10;99.90
52709;DHT22;38606;52.986;6.980;2022-12-11T09:03:48;1.20;99.90
52709;DHT22;38606;52.986;6.980;2022-12-11T09:06:15;2.20;99.90
52709;DHT22;38606;52.986;6.980;2022-12-11T09:08:42;1.10;99.90
52709;DHT22;38606;52.986;6.980;2022-12-11T09:11:11;1.20;99.90
52709;DHT22;38606;52.986;6.980;2022-12-11T09:13:38;1.20;99.90
52709;DHT22;38606;52.986;6.980;2022-12-11T09:16:06;1.00;99.90
52709;DHT22;38606;52.986;6.980;2022-12-11T09:18:32;1.20;99.90
52709;DHT22;38606;52.986;6.980;2022-12-11T09:21:02;1.10;99.90
52709;DHT22;38606;52.986;6.980;2022-12-11T09:23:28;1.10;99.90
52709;DHT22;38606;52.986;6.980;2022-12-11T09:25:56;1.30;99.90
52709;DHT22;38606;52.986;6.980;2022-12-11T09:28:23;1.30;99.90
52709;DHT22;38606;52.986;6.980;2022-12-11T09:30:49;2.60;99.90
52709;DHT22;38606;52.986;6.980;2022-12-11T09:33:15;1.20;99.90
52709;DHT22;38606;52.986;6.980;2022-12-11T09:35:41;1.30;99.90
52709;DHT22;38606;52.986;6.980;2022-12-11T09:38:06;2.30;99.90
52709;DHT22;38606;52.986;6.980;2022-12-11T09:40:32;1.20;99.90
52709;DHT22;38606;52.986;6.980;2022-12-11T09:43:36;1.20;99.90
52709;DHT22;38606;52.986;6.980;2022-12-11T09:46:06;0.50;99.90
52709;DHT22;38606;52.986;6.980;2022-12-11T09:48:35;1.30;99.90
52709;DHT22;38606;52.986;6.980;2022-12-11T09:51:12;3.00;99.90
52709;DHT22;38606;52.986;6.980;2022-12-11T09:53:40;1.10;99.90
52709;DHT22;38606;52.986;6.980;2022-12-11T10:09:55;2.10;99.90
52709;DHT22;38606;52.986;6.980;2022-12-11T10:15:38;1.40;99.90
52709;DHT22;38606;52.986;6.980;2022-12-11T10:18:10;1.50;99.90
52709;DHT22;38606;52.986;6.980;2022-12-11T10:20:37;1.40;99.90
52709;DHT22;38606;52.986;6.980;2022-12-11T10:26:17;1.20;99.90
52709;DHT22;38606;52.986;6.980;2022-12-11T10:28:43;1.30;99.90
52709;DHT22;38606;52.986;6.980;2022-12-11T10:34:00;1.30;99.90
52709;DHT22;38606;52.986;6.980;2022-12-11T10:38:55;1.50;99.90
52709;DHT22;38606;52.986;6.980;2022-12-11T10:41:25;1.50;99.90
52709;DHT22;38606;52.986;6.980;2022-12-11T10:43:56;2.30;99.90
52709;DHT22;38606;52.986;6.980;2022-12-11T10:46:27;2.70;99.90
52709;DHT22;38606;52.986;6.980;2022-12-11T10:48:58;1.50;99.90
52709;DHT22;38606;52.986;6.980;2022-12-11T10:54:36;1.50;99.90
52709;DHT22;38606;52.986;6.980;2022-12-11T10:57:04;1.60;99.90
52709;DHT22;38606;52.986;6.980;2022-12-11T10:59:43;1.60;99.90
52709;DHT22;38606;52.986;6.980;2022-12-11T11:02:24;1.40;99.90
52709;DHT22;38606;52.986;6.980;2022-12-11T11:04:51;1.50;99.90
52709;DHT22;38606;52.986;6.980;2022-12-11T11:09:43;1.50;99.90
52709;DHT22;38606;52.986;6.980;2022-12-11T11:12:24;1.40;99.90
52709;DHT22;38606;52.986;6.980;2022-12-11T11:15:03;1.40;99.90
52709;DHT22;38606;52.986;6.980;2022-12-11T11:17:31;1.40;99.90
52709;DHT22;38606;52.986;6.980;2022-12-11T11:19:59;2.10;99.90
52709;DHT22;38606;52.986;6.980;2022-12-11T11:22:31;1.60;99.90
52709;DHT22;38606;52.986;6.980;2022-12-11T11:24:58;1.40;99.90
52709;DHT22;38606;52.986;6.980;2022-12-11T11:27:33;1.30;99.90
52709;DHT22;38606;52.986;6.980;2022-12-11T11:30:04;2.40;99.90
52709;DHT22;38606;52.986;6.980;2022-12-11T11:32:37;1.50;99.90
52709;DHT22;38606;52.986;6.980;2022-12-11T11:37:36;1.90;99.90
52709;DHT22;38606;52.986;6.980;2022-12-11T11:40:30;1.60;99.90
52709;DHT22;38606;52.986;6.980;2022-12-11T11:43:19;1.50;99.90
52709;DHT22;38606;52.986;6.980;2022-12-11T11:45:58;1.60;99.90
52709;DHT22;38606;52.986;6.980;2022-12-11T11:51:40;1.60;99.90
52709;DHT22;38606;52.986;6.980;2022-12-11T11:54:27;1.60;99.90
52709;DHT22;38606;52.986;6.980;2022-12-11T11:56:55;2.60;99.90
52709;DHT22;38606;52.986;6.980;2022-12-11T11:59:29;1.40;99.90
52709;DHT22;38606;52.986;6.980;2022-12-11T12:01:56;1.40;99.90
52709;DHT22;38606;52.986;6.980;2022-12-11T12:04:24;1.40;99.90
52709;DHT22;38606;52.986;6.980;2022-12-11T12:09:45;1.60;99.90
52709;DHT22;38606;52.986;6.980;2022-12-11T12:23:05;1.50;99.90
52709;DHT22;38606;52.986;6.980;2022-12-11T12:25:48;1.50;99.90
52709;DHT22;38606;52.986;6.980;2022-12-11T12:28:49;1.40;99.90
52709;DHT22;38606;52.986;6.980;2022-12-11T12:31:35;1.50;99.90
52709;DHT22;38606;52.986;6.980;2022-12-11T12:34:13;1.60;99.90
52709;DHT22;38606;52.986;6.980;2022-12-11T12:37:09;1.60;99.90
52709;DHT22;38606;52.986;6.980;2022-12-11T12:39:55;1.60;99.90
52709;DHT22;38606;52.986;6.980;2022-12-11T12:47:42;1.60;99.90
52709;DHT22;38606;52.986;6.980;2022-12-11T12:50:18;1.90;99.90
52709;DHT22;38606;52.986;6.980;2022-12-11T12:52:45;1.70;99.90
52709;DHT22;38606;52.986;6.980;2022-12-11T12:58:00;1.40;99.90
52709;DHT22;38606;52.986;6.980;2022-12-11T13:00:48;1.50;99.90
52709;DHT22;38606;52.986;6.980;2022-12-11T13:03:21;1.50;99.90
52709;DHT22;38606;52.986;6.980;2022-12-11T13:08:45;1.90;99.90
52709;DHT22;38606;52.986;6.980;2022-12-11T13:11:14;1.60;99.90
52709;DHT22;38606;52.986;6.980;2022-12-11T13:13:41;1.40;99.90
52709;DHT22;38606;52.986;6.980;2022-12-11T13:18:44;1.50;99.90
52709;DHT22;38606;52.986;6.980;2022-12-11T13:24:23;1.70;99.90
52709;DHT22;38606;52.986;6.980;2022-12-11T13:26:50;1.50;99.90
52709;DHT22;38606;52.986;6.980;2022-12-11T13:29:33;1.70;99.90
52709;DHT22;38606;52.986;6.980;2022-12-11T13:34:43;1.70;99.90
52709;DHT22;38606;52.986;6.980;2022-12-11T13:37:39;1.70;99.90
52709;DHT22;38606;52.986;6.980;2022-12-11T13:40:28;2.20;99.90
52709;DHT22;38606;52.986;6.980;2022-12-11T13:43:20;1.60;99.90
52709;DHT22;38606;52.986;6.980;2022-12-11T13:46:08;1.60;99.90
52709;DHT22;38606;52.986;6.980;2022-12-11T13:48:47;2.40;99.90
52709;DHT22;38606;52.986;6.980;2022-12-11T13:51:20;1.60;99.90
52709;DHT22;38606;52.986;6.980;2022-12-11T13:53:46;1.80;99.90
52709;DHT22;38606;52.986;6.980;2022-12-11T13:56:20;1.70;99.90
52709;DHT22;38606;52.986;6.980;2022-12-11T13:58:47;1.50;99.90
52709;DHT22;38606;52.986;6.980;2022-12-11T14:03:55;1.50;99.90
52709;DHT22;38606;52.986;6.980;2022-12-11T14:06:21;1.70;99.90
52709;DHT22;38606;52.986;6.980;2022-12-11T14:08:50;1.50;99.90
52709;DHT22;38606;52.986;6.980;2022-12-11T14:11:30;1.40;99.90
52709;DHT22;38606;52.986;6.980;2022-12-11T14:14:00;1.50;99.90
52709;DHT22;38606;52.986;6.980;2022-12-11T14:16:26;1.60;99.90
52709;DHT22;38606;52.986;6.980;2022-12-11T14:18:55;1.60;99.90
52709;DHT22;38606;52.986;6.980;2022-12-11T14:21:25;2.10;99.90
52709;DHT22;38606;52.986;6.980;2022-12-11T14:23:59;2.00;99.90
52709;DHT22;38606;52.986;6.980;2022-12-11T14:26:27;2.40;99.90
52709;DHT22;38606;52.986;6.980;2022-12-11T14:28:54;1.70;99.90
52709;DHT22;38606;52.986;6.980;2022-12-11T14:31:36;2.90;99.90
52709;DHT22;38606;52.986;6.980;2022-12-11T14:34:25;1.70;99.90
52709;DHT22;38606;52.986;6.980;2022-12-11T14:36:53;1.70;99.90
52709;DHT22;38606;52.986;6.980;2022-12-11T14:39:26;1.50;99.90
52709;DHT22;38606;52.986;6.980;2022-12-11T14:42:07;2.40;99.90
52709;DHT22;38606;52.986;6.980;2022-12-11T14:44:45;1.70;99.90
52709;DHT22;38606;52.986;6.980;2022-12-11T14:47:17;1.60;99.90
52709;DHT22;38606;52.986;6.980;2022-12-11T14:49:51;1.60;99.90
52709;DHT22;38606;52.986;6.980;2022-12-11T14:52:31;1.50;99.90
52709;DHT22;38606;52.986;6.980;2022-12-11T14:55:47;1.70;99.90
52709;DHT22;38606;52.986;6.980;2022-12-11T14:57:58;1.50;99.90
52709;DHT22;38606;52.986;6.980;2022-12-11T15:00:27;1.60;99.90
52709;DHT22;38606;52.986;6.980;2022-12-11T15:03:03;1.70;99.90
52709;DHT22;38606;52.986;6.980;2022-12-11T15:05:30;2.70;99.90
52709;DHT22;38606;52.986;6.980;2022-12-11T15:08:02;1.50;99.90
52709;DHT22;38606;52.986;6.980;2022-12-11T15:11:10;1.40;99.90
52709;DHT22;38606;52.986;6.980;2022-12-11T15:13:47;1.40;99.90
52709;DHT22;38606;52.986;6.980;2022-12-11T15:16:14;1.70;99.90
52709;DHT22;38606;52.986;6.980;2022-12-11T15:18:41;1.50;99.90
52709;DHT22;38606;52.986;6.980;2022-12-11T15:21:10;1.60;99.90
52709;DHT22;38606;52.986;6.980;2022-12-11T15:23:50;1.40;99.90
52709;DHT22;38606;52.986;6.980;2022-12-11T15:26:18;1.40;99.90
52709;DHT22;38606;52.986;6.980;2022-12-11T15:28:44;1.40;99.90
52709;DHT22;38606;52.986;6.980;2022-12-11T15:31:30;2.10;99.90
52709;DHT22;38606;52.986;6.980;2022-12-11T15:33:56;3.00;99.90
52709;DHT22;38606;52.986;6.980;2022-12-11T15:36:30;1.60;99.90
52709;DHT22;38606;52.986;6.980;2022-12-11T15:38:56;1.60;99.90
52709;DHT22;38606;52.986;6.980;2022-12-11T15:41:22;1.60;99.90
52709;DHT22;38606;52.986;6.980;2022-12-11T15:43:52;2.70;99.90
52709;DHT22;38606;52.986;6.980;2022-12-11T15:46:18;1.40;99.90
52709;DHT22;38606;52.986;6.980;2022-12-11T15:48:46;2.40;99.90
52709;DHT22;38606;52.986;6.980;2022-12-11T15:51:12;1.50;99.90
52709;DHT22;38606;52.986;6.980;2022-12-11T15:53:37;1.50;99.90
52709;DHT22;38606;52.986;6.980;2022-12-11T15:56:04;1.40;99.90
52709;DHT22;38606;52.986;6.980;2022-12-11T15:58:30;1.50;99.90
52709;DHT22;38606;52.986;6.980;2022-12-11T16:00:55;1.50;99.90
52709;DHT22;38606;52.986;6.980;2022-12-11T16:03:22;1.50;99.90
52709;DHT22;38606;52.986;6.980;2022-12-11T16:05:50;1.60;99.90
52709;DHT22;38606;52.986;6.980;2022-12-11T16:08:18;1.50;99.90
52709;DHT22;38606;52.986;6.980;2022-12-11T16:10:45;1.70;99.90
52709;DHT22;38606;52.986;6.980;2022-12-11T16:13:12;1.50;99.90
52709;DHT22;38606;52.986;6.980;2022-12-11T16:15:40;2.90;99.90
52709;DHT22;38606;52.986;6.980;2022-12-11T16:18:09;1.50;99.90
52709;DHT22;38606;52.986;6.980;2022-12-11T16:20:38;1.40;99.90
52709;DHT22;38606;52.986;6.980;2022-12-11T16:23:05;1.40;99.90
52709;DHT22;38606;52.986;6.980;2022-12-11T16:25:31;1.60;99.90
52709;DHT22;38606;52.986;6.980;2022-12-11T16:27:59;1.50;99.90
52709;DHT22;38606;52.986;6.980;2022-12-11T16:30:26;1.50;99.90
52709;DHT22;38606;52.986;6.980;2022-12-11T16:32:52;2.20;99.90
52709;DHT22;38606;52.986;6.980;2022-12-11T16:35:19;1.80;99.90
52709;DHT22;38606;52.986;6.980;2022-12-11T16:37:51;1.50;99.90
52709;DHT22;38606;52.986;6.980;2022-12-11T16:40:17;1.60;99.90
52709;DHT22;38606;52.986;6.980;2022-12-11T16:42:44;1.40;99.90
52709;DHT22;38606;52.986;6.980;2022-12-11T16:45:16;1.70;99.90
52709;DHT22;38606;52.986;6.980;2022-12-11T16:47:43;1.30;99.90
52709;DHT22;38606;52.986;6.980;2022-12-11T16:50:10;1.70;99.90
52709;DHT22;38606;52.986;6.980;2022-12-11T16:52:37;1.50;99.90
52709;DHT22;38606;52.986;6.980;2022-12-11T16:55:03;1.60;99.90
52709;DHT22;38606;52.986;6.980;2022-12-11T16:57:29;1.60;99.90
52709;DHT22;38606;52.986;6.980;2022-12-11T16:59:55;1.50;99.90
52709;DHT22;38606;52.986;6.980;2022-12-11T17:02:21;1.30;99.90
52709;DHT22;38606;52.986;6.980;2022-12-11T17:04:46;1.40;99.90
52709;DHT22;38606;52.986;6.980;2022-12-11T17:07:13;1.30;99.90
52709;DHT22;38606;52.986;6.980;2022-12-11T17:09:40;1.30;99.90
52709;DHT22;38606;52.986;6.980;2022-12-11T17:12:06;1.60;99.90
52709;DHT22;38606;52.986;6.980;2022-12-11T17:14:32;1.20;99.90
52709;DHT22;38606;52.986;6.980;2022-12-11T17:16:57;1.50;99.90
52709;DHT22;38606;52.986;6.980;2022-12-11T17:19:23;1.40;99.90
52709;DHT22;38606;52.986;6.980;2022-12-11T17:21:49;1.60;99.90
52709;DHT22;38606;52.986;6.980;2022-12-11T17:24:16;1.50;99.90
52709;DHT22;38606;52.986;6.980;2022-12-11T17:26:42;1.40;99.90
52709;DHT22;38606;52.986;6.980;2022-12-11T17:29:10;1.40;99.90
52709;DHT22;38606;52.986;6.980;2022-12-11T17:31:36;1.30;99.90
52709;DHT22;38606;52.986;6.980;2022-12-11T17:34:02;1.20;99.90
52709;DHT22;38606;52.986;6.980;2022-12-11T17:36:28;2.10;99.90
52709;DHT22;38606;52.986;6.980;2022-12-11T17:38:54;1.70;99.90
52709;DHT22;38606;52.986;6.980;2022-12-11T17:41:20;1.40;99.90